Time;durP1;ratioP1;P1;durP2;ratioP2;P2;SDS_P1;SDS_P2;PMS_P1;PMS_P2;Temp;Humidity;BMP_temperature;BMP_pressure;BME280_temperature;BME280_humidity;BME280_pressure;Samples;Min_cycle;Max_cycle;Signal;HPM_P1;HPM_P2
2022/07/07 00:02:08;;;;;;;1.73;0.90;;;17.40;99.90;;;;;;5078598;28;20570;-89
2022/07/07 00:04:36;;;;;;;5.53;1.30;;;17.30;99.90;;;;;;5078372;28;20462;-89
2022/07/07 00:07:04;;;;;;;1.00;0.70;;;17.30;99.90;;;;;;5082111;28;20471;-89
2022/07/07 00:09:31;;;;;;;1.17;1.07;;;17.10;99.90;;;;;;5090076;28;20685;-89
2022/07/07 00:11:58;;;;;;;1.03;0.93;;;17.10;99.90;;;;;;5084578;28;20942;-89
2022/07/07 00:14:25;;;;;;;6.00;1.93;;;17.00;99.90;;;;;;5079130;28;20975;-89
2022/07/07 00:16:53;;;;;;;0.97;0.87;;;17.00;99.90;;;;;;5070349;28;20607;-89
2022/07/07 00:19:20;;;;;;;1.20;0.90;;;17.00;99.90;;;;;;5068496;28;21150;-89
2022/07/07 00:21:48;;;;;;;0.90;0.90;;;16.90;99.90;;;;;;5077199;28;20459;-89
2022/07/07 00:24:15;;;;;;;4.90;0.90;;;16.90;99.90;;;;;;5081311;28;20521;-89
2022/07/07 00:26:42;;;;;;;3.60;1.03;;;16.90;99.90;;;;;;5076289;28;20538;-89
2022/07/07 00:29:09;;;;;;;0.70;0.70;;;16.90;99.90;;;;;;5071426;28;20459;-89
2022/07/07 00:31:37;;;;;;;1.67;1.10;;;16.90;99.90;;;;;;5081023;28;20630;-89
2022/07/07 00:34:04;;;;;;;0.80;0.80;;;17.00;99.90;;;;;;5076485;28;20555;-89
2022/07/07 00:36:31;;;;;;;1.40;1.03;;;17.00;99.90;;;;;;5082075;28;20528;-89
2022/07/07 00:39:00;;;;;;;1.07;1.07;;;17.00;99.90;;;;;;5082694;28;20525;-89
2022/07/07 00:41:27;;;;;;;1.73;0.80;;;17.00;99.90;;;;;;5089701;28;20463;-89
2022/07/07 00:43:54;;;;;;;1.23;1.10;;;17.00;99.90;;;;;;5077679;28;20571;-89
2022/07/07 00:46:21;;;;;;;0.60;0.60;;;17.20;99.90;;;;;;5083268;28;20461;-90
2022/07/07 00:48:48;;;;;;;0.83;0.83;;;17.20;99.90;;;;;;5085499;28;20485;-89
2022/07/07 00:51:16;;;;;;;1.17;1.07;;;17.20;99.90;;;;;;5083760;28;20539;-88
2022/07/07 00:53:43;;;;;;;1.20;1.10;;;17.20;99.90;;;;;;5088071;28;20927;-89
2022/07/07 00:56:11;;;;;;;1.00;0.90;;;17.10;99.90;;;;;;5090388;28;20962;-89
2022/07/07 00:58:38;;;;;;;1.10;0.90;;;17.00;99.90;;;;;;5082284;28;20560;-89
2022/07/07 01:01:05;;;;;;;2.00;0.80;;;17.00;99.90;;;;;;5081250;28;20475;-89
2022/07/07 01:03:32;;;;;;;0.80;0.77;;;17.00;99.90;;;;;;5082219;28;20471;-89
2022/07/07 01:06:02;;;;;;;0.90;0.90;;;17.00;99.90;;;;;;5076305;28;20458;-89
2022/07/07 01:08:30;;;;;;;0.93;0.90;;;17.00;99.90;;;;;;5076787;28;20493;-88
2022/07/07 01:10:57;;;;;;;1.10;1.00;;;16.90;99.90;;;;;;5072653;28;20464;-88
2022/07/07 01:13:26;;;;;;;1.00;1.00;;;16.90;99.90;;;;;;5071122;28;20494;-88
2022/07/07 01:15:53;;;;;;;3.17;1.43;;;16.90;99.90;;;;;;5076924;28;20549;-89
2022/07/07 01:18:19;;;;;;;0.90;0.90;;;16.90;99.90;;;;;;5075361;28;20591;-89
2022/07/07 01:20:48;;;;;;;1.23;1.13;;;16.90;99.90;;;;;;5075935;28;20463;-89
2022/07/07 01:23:17;;;;;;;1.30;1.20;;;17.00;99.90;;;;;;5079974;28;21133;-89
2022/07/07 01:25:44;;;;;;;1.13;0.90;;;17.00;99.90;;;;;;5070166;28;20468;-88
2022/07/07 01:28:11;;;;;;;2.60;1.30;;;16.90;99.90;;;;;;5069886;28;20478;-89
2022/07/07 01:30:38;;;;;;;0.97;0.97;;;16.80;99.90;;;;;;5075409;28;20473;-89
2022/07/07 01:33:05;;;;;;;2.63;0.90;;;16.80;99.90;;;;;;5074065;28;20471;-89
2022/07/07 01:35:32;;;;;;;1.53;1.43;;;16.90;99.90;;;;;;5072911;28;20469;-89
2022/07/07 01:37:59;;;;;;;1.63;1.20;;;16.80;99.90;;;;;;5067581;28;20982;-89
2022/07/07 01:40:27;;;;;;;1.40;1.30;;;16.80;99.90;;;;;;5079181;28;20504;-90
2022/07/07 01:42:54;;;;;;;1.53;1.43;;;16.80;99.90;;;;;;5067143;28;20468;-89
2022/07/07 01:45:22;;;;;;;1.10;0.80;;;16.80;99.90;;;;;;5070907;28;20548;-89
2022/07/07 01:47:49;;;;;;;2.00;1.27;;;16.80;99.90;;;;;;5076889;28;20577;-89
2022/07/07 01:50:16;;;;;;;1.30;1.20;;;16.80;99.90;;;;;;5076875;28;21938;-89
2022/07/07 01:52:43;;;;;;;1.73;1.30;;;16.80;99.90;;;;;;5077854;28;20531;-89
2022/07/07 01:55:10;;;;;;;1.17;1.10;;;16.80;99.90;;;;;;5076911;28;20470;-89
2022/07/07 01:57:39;;;;;;;3.47;2.13;;;16.80;99.90;;;;;;5067694;28;20537;-89
2022/07/07 02:00:07;;;;;;;3.43;1.63;;;16.90;99.90;;;;;;5072571;28;20499;-89
2022/07/07 02:02:34;;;;;;;1.67;1.57;;;16.90;99.90;;;;;;5075521;28;20549;-89
2022/07/07 02:05:01;;;;;;;2.03;1.53;;;16.90;99.90;;;;;;5075392;28;20856;-89
2022/07/07 02:07:28;;;;;;;1.73;1.30;;;16.90;99.90;;;;;;5086293;28;20455;-87
2022/07/07 02:09:55;;;;;;;1.53;1.10;;;17.00;99.90;;;;;;5081643;28;20459;-87
2022/07/07 02:12:23;;;;;;;2.17;2.07;;;16.90;99.90;;;;;;5079913;28;20485;-86
2022/07/07 02:14:51;;;;;;;1.30;1.20;;;16.90;99.90;;;;;;5081641;28;20550;-87
2022/07/07 02:17:18;;;;;;;4.50;1.47;;;16.90;99.90;;;;;;5080990;28;20458;-86
2022/07/07 02:19:45;;;;;;;1.30;1.20;;;17.00;99.90;;;;;;5072650;28;20562;-86
2022/07/07 02:22:12;;;;;;;1.20;1.10;;;17.00;99.90;;;;;;5080218;28;20533;-86
2022/07/07 02:24:39;;;;;;;2.30;1.23;;;16.90;99.90;;;;;;5077475;28;20472;-86
2022/07/07 02:27:06;;;;;;;1.83;1.60;;;16.90;99.90;;;;;;5076145;28;20971;-86
2022/07/07 02:29:33;;;;;;;1.70;1.60;;;16.90;99.90;;;;;;5077812;28;20470;-86
2022/07/07 02:32:02;;;;;;;1.40;1.30;;;17.00;99.90;;;;;;5065896;28;20460;-86
2022/07/07 02:34:29;;;;;;;1.83;1.17;;;17.00;99.90;;;;;;5079692;28;21047;-86
2022/07/07 02:36:56;;;;;;;1.50;1.40;;;17.00;99.90;;;;;;5068784;28;20584;-86
2022/07/07 02:39:23;;;;;;;2.33;1.27;;;17.00;99.90;;;;;;5078591;28;20523;-86
2022/07/07 02:41:50;;;;;;;1.13;1.03;;;17.00;99.90;;;;;;5077799;28;20463;-86
2022/07/07 02:44:16;;;;;;;2.40;1.40;;;17.00;99.90;;;;;;5078420;28;20447;-86
2022/07/07 02:46:43;;;;;;;1.57;1.03;;;17.00;99.90;;;;;;5078767;28;20458;-86
2022/07/07 02:49:12;;;;;;;1.30;1.20;;;16.90;99.90;;;;;;5077854;28;20462;-86
2022/07/07 02:51:39;;;;;;;1.23;1.13;;;16.90;99.90;;;;;;5080008;28;20505;-87
2022/07/07 02:54:06;;;;;;;1.50;1.03;;;16.90;99.90;;;;;;5078263;28;20477;-86
2022/07/07 02:56:33;;;;;;;1.33;1.23;;;16.90;99.90;;;;;;5081399;28;20470;-86
2022/07/07 02:59:00;;;;;;;1.13;1.03;;;16.90;99.90;;;;;;5079648;28;21061;-88
2022/07/07 03:01:27;;;;;;;1.03;1.03;;;16.80;99.90;;;;;;5078070;28;20775;-87
2022/07/07 03:03:54;;;;;;;1.70;1.47;;;16.80;99.90;;;;;;5078913;28;21068;-88
2022/07/07 03:06:22;;;;;;;0.80;0.80;;;16.80;99.90;;;;;;5079490;28;20459;-88
2022/07/07 03:08:49;;;;;;;2.73;1.30;;;16.80;99.90;;;;;;5082346;28;20507;-88
2022/07/07 03:11:16;;;;;;;1.27;1.20;;;16.80;99.90;;;;;;5074628;28;20505;-88
2022/07/07 03:13:43;;;;;;;1.33;1.23;;;16.80;99.90;;;;;;5072973;28;20514;-88
2022/07/07 03:16:10;;;;;;;1.63;1.33;;;16.80;99.90;;;;;;5075144;28;20970;-88
2022/07/07 03:18:37;;;;;;;2.20;0.70;;;16.80;99.90;;;;;;5075726;28;20810;-88
2022/07/07 03:21:04;;;;;;;1.17;1.07;;;16.80;99.90;;;;;;5072195;28;20934;-88
2022/07/07 03:23:32;;;;;;;1.20;0.90;;;16.80;99.90;;;;;;5079597;28;20467;-87
2022/07/07 03:25:59;;;;;;;2.20;0.80;;;16.80;99.90;;;;;;5077594;28;20538;-88
2022/07/07 03:28:26;;;;;;;0.97;0.97;;;16.80;99.90;;;;;;5082973;28;20466;-87
2022/07/07 03:30:53;;;;;;;0.73;0.73;;;16.70;99.90;;;;;;5081441;28;20543;-88
2022/07/07 03:33:20;;;;;;;2.00;0.93;;;16.70;99.90;;;;;;5082300;28;20454;-88
2022/07/07 03:35:47;;;;;;;1.23;0.90;;;16.70;99.90;;;;;;5101933;28;20473;-89
2022/07/07 03:38:14;;;;;;;1.13;1.03;;;16.60;99.90;;;;;;5083922;28;20570;-88
2022/07/07 03:40:42;;;;;;;3.07;0.90;;;16.60;99.90;;;;;;5076549;28;20493;-87
2022/07/07 03:43:09;;;;;;;1.17;1.07;;;16.50;99.90;;;;;;5073628;28;20861;-87
2022/07/07 03:45:36;;;;;;;0.50;0.50;;;16.50;99.90;;;;;;5075155;28;20484;-87
2022/07/07 03:48:03;;;;;;;1.47;0.90;;;16.40;99.90;;;;;;5083085;28;20518;-87
2022/07/07 03:50:30;;;;;;;0.90;0.90;;;16.50;99.90;;;;;;5077874;28;20969;-88
2022/07/07 03:52:58;;;;;;;0.97;0.90;;;16.50;99.90;;;;;;5080438;28;20502;-87
2022/07/07 03:55:25;;;;;;;1.43;1.33;;;16.50;99.90;;;;;;5075686;28;20565;-87
2022/07/07 03:57:53;;;;;;;0.73;0.73;;;16.50;99.90;;;;;;5079096;28;20470;-88
2022/07/07 04:00:20;;;;;;;0.80;0.80;;;16.60;99.90;;;;;;5076902;28;20561;-87
2022/07/07 04:02:47;;;;;;;0.80;0.80;;;16.60;99.90;;;;;;5078763;28;20470;-87
2022/07/07 04:05:14;;;;;;;0.80;0.80;;;16.70;99.90;;;;;;5069705;28;20947;-87
2022/07/07 04:07:41;;;;;;;2.03;0.70;;;16.60;99.90;;;;;;5080059;28;20512;-87
2022/07/07 04:10:09;;;;;;;0.80;0.70;;;16.60;99.90;;;;;;5077825;28;20702;-87
2022/07/07 04:12:36;;;;;;;0.70;0.70;;;16.60;99.90;;;;;;5071580;28;20478;-87
2022/07/07 04:15:05;;;;;;;1.10;1.00;;;16.60;99.90;;;;;;5077015;28;20463;-87
2022/07/07 04:17:32;;;;;;;1.00;0.90;;;16.60;99.90;;;;;;5078602;28;20513;-87
2022/07/07 04:19:59;;;;;;;1.47;1.00;;;16.70;99.90;;;;;;5075838;28;20539;-88
2022/07/07 04:22:26;;;;;;;0.90;0.90;;;16.70;99.90;;;;;;5071806;28;20466;-88
2022/07/07 04:24:54;;;;;;;0.80;0.80;;;16.70;99.90;;;;;;5080221;28;20466;-87
2022/07/07 04:27:21;;;;;;;1.13;1.03;;;16.70;99.90;;;;;;5073978;28;20527;-87
2022/07/07 04:29:48;;;;;;;1.10;1.10;;;16.80;99.90;;;;;;5078147;28;20610;-87
2022/07/07 04:32:16;;;;;;;0.90;0.60;;;16.90;99.90;;;;;;5072634;28;20533;-85
2022/07/07 04:34:43;;;;;;;1.10;1.03;;;17.00;99.90;;;;;;5083131;28;20480;-87
2022/07/07 04:37:10;;;;;;;0.93;0.93;;;17.10;99.90;;;;;;5075921;28;21086;-85
2022/07/07 04:39:37;;;;;;;1.40;1.00;;;17.20;99.90;;;;;;5080259;28;20598;-87
2022/07/07 04:42:05;;;;;;;0.93;0.93;;;17.30;99.90;;;;;;5067762;28;20546;-87
2022/07/07 04:44:32;;;;;;;0.80;0.80;;;17.40;99.90;;;;;;5072296;28;20471;-87
2022/07/07 04:46:59;;;;;;;5.90;1.17;;;17.40;99.50;;;;;;5076669;28;20520;-87
2022/07/07 04:49:27;;;;;;;1.10;1.00;;;17.50;99.70;;;;;;5076975;28;21149;-86
2022/07/07 04:51:54;;;;;;;0.87;0.80;;;17.50;99.50;;;;;;5070930;28;21133;-87
2022/07/07 04:54:21;;;;;;;1.03;0.67;;;17.50;99.30;;;;;;5078061;28;20870;-87
2022/07/07 04:56:48;;;;;;;0.67;0.67;;;17.50;99.70;;;;;;5073146;28;20810;-87
2022/07/07 04:59:16;;;;;;;1.00;0.70;;;17.50;99.40;;;;;;5077501;28;20522;-87
2022/07/07 05:01:43;;;;;;;0.70;0.70;;;17.50;99.30;;;;;;5077553;28;20507;-87
2022/07/07 05:04:10;;;;;;;0.70;0.70;;;17.40;98.90;;;;;;5081091;28;20474;-87
2022/07/07 05:06:38;;;;;;;1.30;0.90;;;17.40;99.50;;;;;;5080708;28;20680;-87
2022/07/07 05:09:05;;;;;;;1.00;0.90;;;17.30;99.20;;;;;;5082417;28;20910;-87
2022/07/07 05:11:32;;;;;;;1.57;0.90;;;17.30;99.10;;;;;;5079234;28;20546;-87
2022/07/07 05:13:59;;;;;;;0.70;0.70;;;17.30;99.60;;;;;;5080378;28;20469;-87
2022/07/07 05:16:26;;;;;;;0.97;0.80;;;17.20;99.80;;;;;;5083480;28;20473;-87
2022/07/07 05:18:53;;;;;;;0.80;0.77;;;17.10;99.80;;;;;;5084525;28;20530;-87
2022/07/07 05:21:20;;;;;;;1.00;0.80;;;17.10;99.50;;;;;;5080350;28;20946;-87
2022/07/07 05:23:48;;;;;;;1.47;0.60;;;17.10;99.90;;;;;;5081134;28;21182;-87
2022/07/07 05:26:15;;;;;;;1.07;0.80;;;17.20;99.70;;;;;;5082191;28;20539;-87
2022/07/07 05:28:42;;;;;;;1.23;0.83;;;17.30;99.30;;;;;;5085396;28;20508;-87
2022/07/07 05:31:10;;;;;;;1.90;1.13;;;17.50;99.00;;;;;;5077223;28;20493;-87
2022/07/07 05:33:37;;;;;;;0.73;0.73;;;17.70;98.80;;;;;;5081667;28;20452;-87
2022/07/07 05:36:04;;;;;;;1.10;0.80;;;18.00;98.50;;;;;;5074817;28;20866;-87
2022/07/07 05:38:32;;;;;;;2.30;0.80;;;17.90;97.90;;;;;;5083958;28;20488;-88
2022/07/07 05:41:00;;;;;;;1.73;0.90;;;18.10;98.20;;;;;;5083897;28;20516;-89
2022/07/07 05:43:27;;;;;;;0.93;0.90;;;18.30;97.50;;;;;;5075514;28;20475;-87
2022/07/07 05:45:54;;;;;;;1.67;0.70;;;18.50;96.90;;;;;;5075451;28;20522;-87
2022/07/07 05:48:22;;;;;;;1.20;0.77;;;18.60;96.20;;;;;;5067653;28;20448;-88
2022/07/07 05:50:49;;;;;;;1.00;0.80;;;18.70;95.80;;;;;;5074882;28;20459;-87
2022/07/07 05:53:16;;;;;;;1.10;1.03;;;18.90;95.10;;;;;;5071492;28;20470;-87
2022/07/07 05:55:43;;;;;;;0.67;0.67;;;18.90;94.50;;;;;;5070655;28;20556;-88
2022/07/07 05:58:12;;;;;;;1.93;0.70;;;18.80;94.50;;;;;;5079797;28;21117;-87
2022/07/07 06:00:40;;;;;;;0.70;0.70;;;18.60;95.00;;;;;;5077328;28;20552;-89
2022/07/07 06:03:18;;;;;;;0.67;0.67;;;18.30;94.90;;;;;;5076609;28;20458;-87
2022/07/07 06:05:46;;;;;;;4.10;0.80;;;18.20;94.70;;;;;;5075314;28;20478;-90
2022/07/07 06:08:13;;;;;;;0.90;0.70;;;18.20;95.10;;;;;;5076662;28;20464;-87
2022/07/07 06:10:40;;;;;;;0.77;0.70;;;18.20;95.50;;;;;;5083202;28;21144;-88
2022/07/07 06:13:07;;;;;;;1.43;1.03;;;18.30;95.50;;;;;;5073781;28;20544;-87
2022/07/07 06:15:36;;;;;;;1.67;0.93;;;18.40;94.90;;;;;;5079347;28;20528;-88
2022/07/07 06:18:03;;;;;;;0.70;0.70;;;18.60;95.80;;;;;;5081517;28;20928;-88
2022/07/07 06:20:30;;;;;;;1.00;0.70;;;18.80;95.70;;;;;;5076601;28;21056;-88
2022/07/07 06:22:57;;;;;;;0.70;0.70;;;19.00;94.70;;;;;;5081357;28;20454;-88
2022/07/07 06:25:26;;;;;;;1.37;0.77;;;18.90;94.40;;;;;;5073524;28;20466;-88
2022/07/07 06:27:53;;;;;;;1.53;1.43;;;18.70;94.50;;;;;;5072524;28;20500;-88
2022/07/07 06:30:20;;;;;;;2.63;2.20;;;18.60;94.60;;;;;;5075532;28;20516;-87
2022/07/07 06:32:48;;;;;;;0.80;0.80;;;18.80;94.90;;;;;;5079976;28;20992;-88
2022/07/07 06:35:16;;;;;;;10.63;5.30;;;18.80;94.50;;;;;;5077483;28;20488;-88
2022/07/07 06:37:43;;;;;;;10.13;5.00;;;18.80;94.30;;;;;;5074300;28;20515;-87
2022/07/07 06:40:11;;;;;;;4.73;2.97;;;19.00;94.40;;;;;;5099832;28;20523;-88
2022/07/07 06:42:38;;;;;;;4.20;1.40;;;19.00;93.90;;;;;;5090234;28;20815;-88
2022/07/07 06:45:05;;;;;;;2.10;2.00;;;18.90;94.20;;;;;;5076136;28;20457;-88
2022/07/07 06:47:32;;;;;;;4.10;3.03;;;18.90;94.00;;;;;;5080939;28;20484;-88
2022/07/07 06:50:01;;;;;;;2.90;2.03;;;19.00;94.30;;;;;;5080139;28;20530;-89
2022/07/07 06:52:28;;;;;;;6.13;2.93;;;19.20;94.60;;;;;;5079170;28;20693;-89
2022/07/07 06:54:55;;;;;;;4.37;3.13;;;19.20;93.30;;;;;;5072450;28;20556;-89
2022/07/07 06:57:22;;;;;;;3.73;2.00;;;19.20;94.00;;;;;;5074556;28;20940;-87
2022/07/07 06:59:49;;;;;;;3.53;1.93;;;19.10;93.60;;;;;;5080086;28;21030;-89
2022/07/07 07:02:16;;;;;;;2.07;1.90;;;19.10;92.90;;;;;;5073369;28;20541;-87
2022/07/07 07:04:43;;;;;;;2.07;1.83;;;19.10;93.00;;;;;;5076388;28;20976;-88
2022/07/07 07:07:11;;;;;;;1.33;0.90;;;18.90;93.30;;;;;;5071078;28;20467;-86
2022/07/07 07:09:38;;;;;;;1.03;0.80;;;18.90;93.50;;;;;;5076183;28;20519;-88
2022/07/07 07:12:06;;;;;;;4.70;1.50;;;19.00;92.70;;;;;;5076853;28;20467;-88
2022/07/07 07:14:33;;;;;;;0.77;0.77;;;19.10;93.00;;;;;;5062757;28;20467;-88
2022/07/07 07:17:00;;;;;;;1.63;1.00;;;19.20;93.60;;;;;;5072856;28;20457;-89
2022/07/07 07:19:27;;;;;;;1.90;0.93;;;19.30;92.90;;;;;;5070509;28;21015;-89
2022/07/07 07:21:54;;;;;;;0.80;0.80;;;19.40;92.40;;;;;;5082480;28;20780;-88
2022/07/07 07:24:22;;;;;;;0.83;0.83;;;19.20;92.30;;;;;;5075047;28;20893;-89
2022/07/07 07:26:49;;;;;;;0.90;0.70;;;19.20;92.30;;;;;;5075351;28;20459;-89
2022/07/07 07:29:16;;;;;;;0.83;0.83;;;19.30;92.10;;;;;;5065093;28;20467;-88
2022/07/07 07:31:43;;;;;;;0.77;0.70;;;19.20;91.90;;;;;;5076205;28;20471;-90
2022/07/07 07:34:11;;;;;;;0.70;0.60;;;19.10;91.80;;;;;;5078390;28;20462;-90
2022/07/07 07:36:38;;;;;;;2.30;1.10;;;19.30;92.60;;;;;;5077994;28;20995;-89
2022/07/07 07:39:05;;;;;;;0.90;0.60;;;19.50;92.60;;;;;;5073376;28;20548;-90
2022/07/07 07:41:33;;;;;;;1.10;0.80;;;19.80;92.30;;;;;;5070257;28;20546;-89
2022/07/07 07:44:00;;;;;;;1.17;0.67;;;19.70;91.30;;;;;;5078859;28;20496;-89
2022/07/07 07:46:27;;;;;;;1.43;0.97;;;19.70;91.30;;;;;;5078584;28;20522;-90
2022/07/07 07:48:54;;;;;;;1.93;0.97;;;19.80;91.60;;;;;;5078638;28;20557;-90
2022/07/07 07:51:21;;;;;;;0.70;0.70;;;19.80;91.70;;;;;;5073032;28;20462;-90
2022/07/07 07:53:48;;;;;;;0.87;0.67;;;20.10;91.40;;;;;;5066743;28;20755;-90
2022/07/07 07:56:15;;;;;;;0.60;0.60;;;19.90;90.90;;;;;;5070283;28;20496;-90
2022/07/07 07:58:43;;;;;;;1.57;0.83;;;19.90;91.30;;;;;;5067016;28;20529;-91
2022/07/07 08:01:11;;;;;;;0.53;0.50;;;20.20;91.80;;;;;;5071896;28;20546;-91
2022/07/07 08:03:38;;;;;;;2.00;0.80;;;20.30;90.90;;;;;;5069639;28;20550;-90
2022/07/07 08:06:05;;;;;;;1.17;0.60;;;20.40;90.40;;;;;;5070632;28;20458;-89
2022/07/07 08:08:32;;;;;;;1.40;0.70;;;20.70;90.30;;;;;;5071559;28;20456;-91
2022/07/07 08:10:59;;;;;;;1.57;0.80;;;21.00;90.20;;;;;;5070615;28;20897;-90
2022/07/07 08:13:26;;;;;;;0.60;0.60;;;21.20;89.30;;;;;;5076258;28;20534;-91
2022/07/07 08:15:55;;;;;;;2.37;0.70;;;21.00;87.50;;;;;;5073763;28;20949;-91
2022/07/07 08:18:22;;;;;;;0.73;0.60;;;20.80;85.60;;;;;;5073586;28;20762;-91
2022/07/07 08:20:49;;;;;;;1.33;0.70;;;20.80;85.50;;;;;;5073802;28;20488;-91
2022/07/07 08:23:16;;;;;;;2.93;1.00;;;21.00;85.20;;;;;;5075227;28;20975;-90
2022/07/07 08:25:43;;;;;;;1.10;1.00;;;21.20;86.30;;;;;;5081119;28;20496;-90
2022/07/07 08:28:10;;;;;;;0.70;0.60;;;21.00;83.30;;;;;;5073803;28;20772;-91
2022/07/07 08:30:37;;;;;;;1.50;0.70;;;21.10;83.40;;;;;;5074650;28;20448;-91
2022/07/07 08:33:06;;;;;;;0.87;0.87;;;21.10;82.70;;;;;;5075345;28;20460;-91
2022/07/07 08:35:33;;;;;;;1.33;0.80;;;21.10;83.50;;;;;;5073678;28;20552;-91
2022/07/07 08:38:00;;;;;;;1.00;0.80;;;21.40;82.90;;;;;;5070972;28;20467;-91
2022/07/07 08:40:27;;;;;;;3.13;0.60;;;21.00;82.20;;;;;;5077008;28;20915;-91
2022/07/07 08:42:54;;;;;;;0.90;0.70;;;21.10;85.70;;;;;;5074576;28;20471;-91
2022/07/07 08:45:22;;;;;;;0.87;0.70;;;21.30;83.30;;;;;;5078240;28;20467;-90
2022/07/07 08:47:49;;;;;;;0.70;0.60;;;21.00;84.00;;;;;;5078003;28;20841;-90
2022/07/07 08:50:18;;;;;;;1.03;0.60;;;20.70;82.20;;;;;;5077285;28;21174;-90
2022/07/07 08:52:50;;;;;;;2.87;0.80;;;20.60;84.20;;;;;;5072150;28;20550;-91
2022/07/07 08:55:22;;;;;;;0.90;0.80;;;20.60;84.40;;;;;;5067352;28;20468;-90
2022/07/07 08:57:51;;;;;;;1.27;0.60;;;20.30;84.80;;;;;;5071832;28;20460;-91
2022/07/07 09:00:18;;;;;;;0.90;0.60;;;20.30;85.90;;;;;;5074935;28;20494;-90
2022/07/07 09:02:45;;;;;;;1.10;0.70;;;20.10;86.70;;;;;;5074862;28;20544;-91
2022/07/07 09:05:13;;;;;;;1.10;0.70;;;20.00;87.60;;;;;;5080615;28;20526;-90
2022/07/07 09:07:48;;;;;;;1.57;0.70;;;20.00;86.30;;;;;;5075071;28;20451;-90
2022/07/07 09:10:31;;;;;;;0.90;0.80;;;19.60;87.60;;;;;;5072370;28;20460;-90
2022/07/07 09:12:59;;;;;;;1.10;1.00;;;19.50;88.90;;;;;;5068063;28;20454;-91
2022/07/07 09:15:26;;;;;;;0.77;0.77;;;19.30;90.20;;;;;;5072443;28;20540;-90
2022/07/07 09:17:54;;;;;;;0.77;0.77;;;18.90;91.30;;;;;;5065454;28;20928;-91
2022/07/07 09:20:21;;;;;;;0.83;0.67;;;18.50;93.60;;;;;;5069212;28;20486;-90
2022/07/07 09:22:51;;;;;;;1.37;1.03;;;17.60;97.60;;;;;;5066574;28;20893;-91
2022/07/07 09:25:20;;;;;;;0.90;0.90;;;17.20;99.70;;;;;;5075663;28;20469;-89
2022/07/07 09:27:53;;;;;;;3.73;0.70;;;17.10;99.90;;;;;;5076275;28;20556;-91
2022/07/07 09:30:35;;;;;;;1.13;0.80;;;17.10;99.90;;;;;;5070764;28;20468;-91
2022/07/07 09:33:04;;;;;;;2.27;1.00;;;17.00;99.90;;;;;;5071845;28;20604;-92
2022/07/07 09:38:22;;;;;;;1.60;0.80;;;17.10;99.90;;;;;;5066439;28;20899;-91
2022/07/07 09:40:59;;;;;;;1.20;1.00;;;17.20;99.90;;;;;;5076312;28;20498;-92
2022/07/07 09:43:27;;;;;;;0.93;0.90;;;17.40;99.90;;;;;;5076153;28;20474;-91
2022/07/07 09:46:15;;;;;;;0.83;0.70;;;17.60;99.90;;;;;;5077888;28;20463;-90
2022/07/07 09:48:45;;;;;;;1.90;1.23;;;17.70;99.90;;;;;;5089376;28;20493;-90
2022/07/07 09:51:14;;;;;;;1.20;0.97;;;17.80;99.90;;;;;;5094491;28;20451;-90
2022/07/07 09:54:05;;;;;;;1.30;1.00;;;17.90;99.90;;;;;;5072804;28;20563;-90
2022/07/07 09:56:34;;;;;;;0.90;0.63;;;17.60;99.90;;;;;;5065558;28;20962;-91
2022/07/07 09:59:04;;;;;;;0.70;0.63;;;17.60;99.90;;;;;;5074161;28;20451;-90
2022/07/07 10:01:33;;;;;;;1.40;1.07;;;17.50;99.90;;;;;;5070567;28;20683;-90
2022/07/07 10:04:03;;;;;;;1.03;0.93;;;17.50;99.90;;;;;;5071836;28;20859;-91
2022/07/07 10:06:32;;;;;;;1.10;0.73;;;17.50;99.90;;;;;;5071890;28;20471;-89
2022/07/07 10:09:05;;;;;;;1.90;1.20;;;17.40;99.90;;;;;;5086782;28;20462;-90
2022/07/07 10:11:41;;;;;;;1.23;1.13;;;17.50;99.90;;;;;;5073031;28;20466;-90
2022/07/07 10:14:14;;;;;;;0.90;0.80;;;17.70;99.90;;;;;;5073055;28;20524;-89
2022/07/07 10:16:42;;;;;;;1.43;1.00;;;17.90;99.90;;;;;;5071164;28;20995;-89
2022/07/07 10:19:11;;;;;;;1.00;0.90;;;18.10;99.90;;;;;;5073764;28;21011;-89
2022/07/07 10:21:41;;;;;;;1.00;0.93;;;18.10;99.90;;;;;;5072049;28;20478;-89
2022/07/07 10:24:09;;;;;;;1.00;0.80;;;18.00;99.90;;;;;;5069964;28;20848;-89
2022/07/07 10:26:37;;;;;;;1.07;0.80;;;18.20;99.90;;;;;;5074985;28;20512;-89
2022/07/07 10:29:06;;;;;;;1.17;1.07;;;18.20;99.90;;;;;;5070323;28;20459;-88
2022/07/07 10:31:34;;;;;;;1.43;1.23;;;18.40;99.90;;;;;;5065879;28;20833;-89
2022/07/07 10:34:03;;;;;;;1.20;0.77;;;18.50;99.90;;;;;;5069494;28;20458;-89
2022/07/07 10:37:03;;;;;;;0.80;0.80;;;18.50;99.90;;;;;;5072546;28;20475;-89
2022/07/07 10:39:36;;;;;;;0.97;0.80;;;18.70;99.90;;;;;;5076664;28;21021;-89
2022/07/07 10:42:35;;;;;;;1.00;0.87;;;18.70;99.40;;;;;;5078710;28;20485;-88
2022/07/07 10:45:05;;;;;;;2.00;0.80;;;19.00;99.90;;;;;;5074255;28;20449;-89
2022/07/07 10:47:33;;;;;;;1.40;1.30;;;19.30;98.40;;;;;;5078979;28;20511;-91
2022/07/07 10:50:01;;;;;;;0.80;0.80;;;19.50;97.80;;;;;;5081268;28;20459;-90
2022/07/07 10:52:30;;;;;;;4.10;1.30;;;19.60;97.00;;;;;;5075141;28;21015;-90
2022/07/07 10:55:02;;;;;;;0.70;0.70;;;19.50;97.40;;;;;;5073109;28;20470;-90
2022/07/07 10:57:39;;;;;;;0.80;0.80;;;19.60;95.90;;;;;;5067661;28;20465;-90
2022/07/07 11:00:18;;;;;;;1.20;1.10;;;19.20;95.50;;;;;;5075760;28;20944;-91
2022/07/07 11:02:48;;;;;;;2.20;1.07;;;19.20;95.90;;;;;;5069254;28;20696;-90
2022/07/07 11:05:32;;;;;;;0.80;0.80;;;19.00;96.30;;;;;;5072512;28;20463;-91
2022/07/07 11:08:08;;;;;;;0.83;0.83;;;18.80;95.50;;;;;;5070098;28;20465;-91
2022/07/07 11:10:56;;;;;;;1.90;0.90;;;18.80;95.90;;;;;;5067783;28;20509;-91
2022/07/07 11:13:29;;;;;;;2.90;1.53;;;18.70;96.70;;;;;;5066911;28;20496;-88
2022/07/07 11:16:14;;;;;;;0.93;0.70;;;18.50;96.00;;;;;;5063009;28;20955;-90
2022/07/07 11:18:42;;;;;;;2.90;0.80;;;18.40;96.00;;;;;;5071986;28;20462;-88
2022/07/07 11:21:09;;;;;;;3.07;0.73;;;18.40;96.10;;;;;;5058841;28;20951;-88
2022/07/07 11:23:47;;;;;;;0.87;0.87;;;18.30;93.70;;;;;;5057095;28;20546;-89
2022/07/07 11:26:17;;;;;;;3.07;0.73;;;18.40;94.60;;;;;;5058006;28;20682;-89
2022/07/07 11:28:44;;;;;;;0.77;0.70;;;18.50;94.60;;;;;;5068794;28;20467;-90
2022/07/07 11:31:13;;;;;;;1.03;0.87;;;18.60;93.70;;;;;;5059891;28;20908;-90
2022/07/07 11:33:40;;;;;;;1.07;0.90;;;18.70;93.50;;;;;;5067602;28;20533;-89
2022/07/07 11:36:16;;;;;;;0.73;0.73;;;18.70;93.00;;;;;;5067761;28;20463;-89
2022/07/07 11:38:44;;;;;;;2.40;0.90;;;18.80;92.60;;;;;;5065526;28;20557;-90
2022/07/07 11:41:11;;;;;;;0.73;0.73;;;18.70;92.70;;;;;;5060556;28;20512;-89
2022/07/07 11:43:38;;;;;;;1.53;1.00;;;18.80;93.60;;;;;;5070695;28;20852;-89
2022/07/07 11:46:05;;;;;;;2.80;1.20;;;18.90;93.10;;;;;;5069978;28;20551;-89
2022/07/07 11:48:39;;;;;;;1.30;1.20;;;18.80;93.60;;;;;;5070856;28;20478;-89
2022/07/07 11:51:06;;;;;;;1.37;0.80;;;18.80;92.90;;;;;;5069611;28;20529;-89
2022/07/07 11:53:34;;;;;;;1.57;0.70;;;18.80;93.30;;;;;;5071868;28;20481;-88
2022/07/07 11:56:01;;;;;;;1.10;0.90;;;18.50;94.60;;;;;;5075404;28;20923;-89
2022/07/07 11:58:30;;;;;;;0.80;0.80;;;18.20;96.30;;;;;;5071304;28;21030;-89
2022/07/07 12:00:57;;;;;;;1.20;1.10;;;17.90;97.90;;;;;;5066009;28;20523;-89
2022/07/07 12:03:33;;;;;;;1.87;0.90;;;17.60;99.30;;;;;;5065097;28;20491;-89
2022/07/07 12:06:03;;;;;;;1.37;1.10;;;17.30;99.90;;;;;;5068972;28;20471;-88
2022/07/07 12:08:37;;;;;;;1.50;1.27;;;17.00;99.90;;;;;;5065996;28;20567;-90
2022/07/07 12:11:06;;;;;;;1.20;1.10;;;17.10;99.90;;;;;;5068651;28;21018;-88
2022/07/07 12:13:34;;;;;;;1.90;0.97;;;17.10;99.90;;;;;;5071547;28;20539;-89
2022/07/07 12:16:04;;;;;;;1.40;1.30;;;17.00;99.90;;;;;;5068185;28;20476;-89
2022/07/07 12:18:37;;;;;;;1.27;1.17;;;16.90;99.90;;;;;;5075978;28;20838;-88
2022/07/07 12:21:07;;;;;;;0.90;0.90;;;17.00;99.90;;;;;;5071682;28;20683;-88
2022/07/07 12:23:39;;;;;;;0.93;0.93;;;17.00;99.30;;;;;;5067822;28;20477;-87
2022/07/07 12:26:12;;;;;;;3.43;1.13;;;17.00;99.40;;;;;;5072392;28;20616;-87
2022/07/07 12:28:39;;;;;;;1.57;1.10;;;17.10;98.80;;;;;;5078079;28;20453;-86
2022/07/07 12:31:07;;;;;;;0.70;0.70;;;17.20;99.50;;;;;;5080582;28;20461;-87
2022/07/07 12:33:37;;;;;;;1.50;1.20;;;17.20;99.50;;;;;;5082923;28;20524;-86
2022/07/07 12:36:14;;;;;;;6.20;0.87;;;17.10;99.10;;;;;;5084735;28;20533;-87
2022/07/07 12:38:46;;;;;;;1.23;0.90;;;17.20;99.10;;;;;;5082617;28;20836;-86
2022/07/07 12:41:24;;;;;;;1.10;0.90;;;17.10;98.70;;;;;;5080098;28;20490;-87
2022/07/07 12:43:51;;;;;;;0.90;0.90;;;16.90;99.40;;;;;;5085835;28;20469;-89
2022/07/07 12:46:19;;;;;;;1.50;0.93;;;16.70;99.90;;;;;;5076564;28;20469;-89
2022/07/07 12:48:48;;;;;;;0.60;0.60;;;16.80;99.90;;;;;;5083085;28;20544;-87
2022/07/07 12:51:17;;;;;;;1.37;1.27;;;16.80;99.90;;;;;;5084188;28;20481;-88
2022/07/07 12:53:45;;;;;;;1.30;1.10;;;16.70;99.90;;;;;;5105470;28;20477;-90
2022/07/07 12:56:15;;;;;;;4.43;1.40;;;16.60;99.90;;;;;;5084958;28;20469;-89
2022/07/07 12:58:47;;;;;;;1.03;1.03;;;16.60;99.90;;;;;;5081494;28;20790;-91